Latest Coastal Weather Observations for Croker Island Airport

IDD60701

Issued at 5:41 am CST Saturday 20 December 2014 (issued every 10 minutes, with the page automatically refreshed every 10 minutes)

About coastal observations | Map of coastal stations | Coastal observations for NT | Marine services | Other Formats
Station Details ID: 014308 Name: CROKER ISLAND AIRPORT Lat: -11.16 Lon: 132.48 Height: 9.2 m
Data from the previous 72 hours. | See also: Recent months for locations in Northern Territory
Date/Time
CST
Temp

°C
Wind Pressure Rain
since 9am
mm
Weather Cloud Vis
km
Sea
Height
m
Swell
Dir
 
Speed
knots
Gust
knots
hPa Trend Height
m
Period
s
Dir
20/05:30am 29.3 NW 3 4 1008.2 - - - - - - - - -
20/05:00am 29.4 NW 4 5 1008.1 - - - - - - - - -
20/04:30am 29.0 NNW 3 4 1007.9 - - - - - - - - -
20/04:00am 29.2 NW 4 5 1007.8 - - - - - - - - -
20/03:30am 29.3 NNW 4 5 1007.8 - - - - - - - - -
20/03:00am 29.4 NNW 3 5 1008.3 - - - - - - - - -
20/02:30am 29.5 NNW 4 6 1008.3 - - - - - - - - -
20/02:00am 29.6 N 4 6 1008.2 - - - - - - - - -
20/01:30am 29.7 NNW 4 7 1008.9 - - - - - - - - -
20/01:00am 29.8 NNW 4 6 1009.4 - - - - - - - - -
20/12:30am 29.9 NNW 4 6 1009.8 - - - - - - - - -
20/12:00am 29.9 N 5 8 1009.8 - - - - - - - - -
 
Date/Time
CST
Temp

°C
Wind Pressure Rain
since 9am
mm
Weather Cloud Vis
km
Sea
Height
m
Swell
Dir
 
Speed
knots
Gust
knots
hPa Trend Height
m
Period
s
Dir
19/11:30pm 30.1 NNW 5 8 1010.2 - - - - - - - - -
19/11:00pm 30.1 N 5 7 1010.1 - - - - - - - - -
19/10:30pm 30.1 N 4 7 1010.2 - - - - - - - - -
19/10:00pm 30.3 N 5 7 1010.0 - - - - - - - - -
19/09:30pm 30.4 NNW 5 7 1009.8 - - - - - - - - -
19/09:00pm 30.4 NNW 5 7 1009.4 - - - - - - - - -
19/08:30pm 30.4 N 5 7 1009.0 - - - - - - - - -
19/08:00pm 30.5 N 4 6 1008.9 - - - - - - - - -
19/07:30pm 30.6 N 4 6 1008.0 - - - - - - - - -
19/07:00pm 30.9 N 5 7 1007.5 - - - - - - - - -
19/06:30pm 31.7 NNW 6 9 1006.8 - - - - - - - - -
19/06:00pm 32.4 NNW 6 8 1007.0 - - - - - - - - -
19/05:30pm 32.9 NNW 6 9 1006.4 - - - - - - - - -
19/05:00pm 33.5 NW 7 13 1006.5 - - - - - - - - -
19/04:30pm 33.9 NW 8 12 1006.7 - - - - - - - - -
19/04:00pm 34.1 NW 8 11 1007.2 - - - - - - - - -
19/03:30pm 34.5 NW 7 10 1007.3 - - - - - - - - -
19/03:00pm 35.1 NW 7 11 1007.6 - - - - - - - - -
19/02:30pm 34.9 NW 8 11 1008.1 - - - - - - - - -
19/02:00pm 35.2 NNW 8 12 1008.5 - - - - - - - - -
19/01:30pm 34.8 NW 8 12 1008.8 - - - - - - - - -
19/01:00pm 34.5 NNW 6 9 1009.1 - - - - - - - - -
19/12:30pm 33.1 NNW 5 8 1009.6 - - - - - - - - -
19/12:00pm 34.1 WNW 6 10 1009.9 - - - - - - - - -
19/11:30am 34.3 WNW 5 7 1010.3 - - - - - - - - -
19/11:00am 33.6 WSW 4 7 1010.5 - - - - - - - - -
19/10:30am 33.5 WSW 4 6 1010.7 - - - - - - - - -
19/10:00am 32.5 WNW 3 5 1010.6 - - - - - - - - -
19/09:30am 31.2 NNW 2 4 1010.7 - - - - - - - - -
19/09:00am 32.1 WSW 3 4 1010.9 - - - - - - - - -
19/08:30am 31.2 S 2 4 1011.0 - - - - - - - - -
19/08:00am 30.6 ESE 2 4 1010.7 - - - - - - - - -
19/07:30am 29.7 E 2 3 1010.4 - - - - - - - - -
19/07:00am 29.4 WSW 1 2 1010.3 - - - - - - - - -
19/06:30am 28.9 NW 1 2 1010.0 - - - - - - - - -
19/06:00am 28.9 NW 2 3 1009.7 - - - - - - - - -
19/05:30am 29.2 NW 2 3 1009.2 - - - - - - - - -
19/05:00am 29.6 WNW 4 6 1008.9 - - - - - - - - -
19/04:30am 29.6 WNW 5 8 1008.8 - - - - - - - - -
19/04:00am 29.7 WSW 6 7 1008.8 - - - - - - - - -
19/03:30am 29.5 NW 4 6 1008.6 - - - - - - - - -
19/03:00am 29.8 WNW 4 7 1008.7 - - - - - - - - -
19/02:30am 29.7 WNW 5 7 1008.8 - - - - - - - - -
19/02:00am 29.4 NW 4 5 1008.5 - - - - - - - - -
19/01:30am 29.5 NW 4 7 1008.7 - - - - - - - - -
19/01:00am 29.8 WNW 4 6 1008.9 - - - - - - - - -
19/12:30am 29.7 NW 4 8 1009.2 - - - - - - - - -
19/12:00am 29.7 NW 4 6 1009.7 - - - - - - - - -
 
Date/Time
CST
Temp

°C
Wind Pressure Rain
since 9am
mm
Weather Cloud Vis
km
Sea
Height
m
Swell
Dir
 
Speed
knots
Gust
knots
hPa Trend Height
m
Period
s
Dir
18/11:30pm 29.8 NW 5 7 1009.9 - - - - - - - - -
18/11:00pm 29.9 NW 4 7 1009.8 - - - - - - - - -
18/10:30pm 29.9 NW 4 6 1009.5 - - - - - - - - -
18/10:00pm 29.9 NW 5 7 1009.3 - - - - - - - - -
18/09:30pm 30.0 NW 5 8 1009.1 - - - - - - - - -
18/09:00pm 30.0 NW 5 8 1008.6 - - - - - - - - -
18/08:30pm 30.0 NW 4 6 1008.4 - - - - - - - - -
18/08:00pm 30.1 NW 5 7 1007.8 - - - - - - - - -
18/07:30pm 30.2 NW 6 8 1007.6 - - - - - - - - -
18/07:00pm 30.4 NW 6 9 1007.1 - - - - - - - - -
18/06:30pm 31.5 NW 5 8 1006.8 - - - - - - - - -
18/06:00pm 32.4 NW 6 10 1007.1 - - - - - - - - -
18/05:30pm 32.7 NW 7 11 1006.8 - - - - - - - - -
18/05:00pm 33.0 NW 7 12 1007.2 - - - - - - - - -
18/04:30pm 33.6 NW 8 12 1007.0 - - - - - - - - -
18/04:00pm 33.8 NW 9 13 1006.9 - - - - - - - - -
18/03:30pm 34.0 NW 8 12 1007.5 - - - - - - - - -
18/03:00pm 34.2 WNW 8 13 1007.6 - - - - - - - - -
18/02:30pm 34.9 NW 6 11 1007.7 - - - - - - - - -
18/02:00pm 34.0 NW 9 13 1008.0 - - - - - - - - -
18/01:30pm 33.9 NW 8 11 1008.6 - - - - - - - - -
18/01:00pm 34.2 WNW 8 12 1008.8 - - - - - - - - -
18/12:30pm 34.3 NNW 7 11 1008.9 - - - - - - - - -
18/12:00pm 34.2 NNW 8 11 1009.4 - - - - - - - - -
18/11:30am 32.9 NNW 8 11 1009.7 - - - - - - - - -
18/11:00am 33.2 NW 7 10 1010.1 - - - - - - - - -
18/10:30am 33.1 NW 7 10 1010.2 - - - - - - - - -
18/10:00am 33.0 NW 5 8 1010.0 - - - - - - - - -
18/09:30am 32.3 WNW 5 7 1010.0 - - - - - - - - -
18/09:00am 32.1 NW 5 7 1009.9 - - - - - - - - -
18/08:30am 31.8 NNW 4 6 1009.6 - - - - - - - - -
18/08:00am 31.1 NNW 4 5 1009.2 - - - - - - - - -
18/07:30am 30.4 NNW 3 4 1008.9 - - - - - - - - -
18/07:00am 29.6 NW 3 5 1008.6 - - - - - - - - -
18/06:30am 29.1 NW 2 3 1008.0 - - - - - - - - -
18/06:00am 29.3 WNW 2 4 1007.5 - - - - - - - - -
18/05:30am 29.5 WSW 6 8 1007.0 - - - - - - - - -
18/05:00am 29.7 W 6 8 1006.8 - - - - - - - - -
18/04:30am 29.6 WNW 5 8 1006.7 - - - - - - - - -
18/04:00am 29.6 WNW 5 8 1006.6 - - - - - - - - -
18/03:30am 29.8 WNW 6 9 1006.7 - - - - - - - - -
18/03:00am 29.9 WNW 6 9 1006.8 - - - - - - - - -
18/02:30am 29.9 WNW 6 9 1006.8 - - - - - - - - -
18/02:00am 29.8 NW 5 7 1006.7 - - - - - - - - -
18/01:30am 29.9 WNW 7 10 1007.0 - - - - - - - - -
18/01:00am 30.1 W 8 11 1007.5 - - - - - - - - -
18/12:30am 30.0 WNW 7 10 1007.7 - - - - - - - - -
18/12:00am 30.1 W 7 10 1008.0 - - - - - - - - -
 
Date/Time
CST
Temp

°C
Wind Pressure Rain
since 9am
mm
Weather Cloud Vis
km
Sea
Height
m
Swell
Dir
 
Speed
knots
Gust
knots
hPa Trend Height
m
Period
s
Dir
17/11:30pm 30.3 WNW 8 11 1008.2 - - - - - - - - -
17/11:00pm 30.3 WNW 9 12 1008.4 - - - - - - - - -
17/10:30pm 30.3 WNW 7 13 1008.5 - - - - - - - - -
17/10:00pm 30.3 WNW 8 11 1008.2 - - - - - - - - -
17/09:30pm 30.4 WNW 10 13 1008.2 - - - - - - - - -
17/09:00pm 30.5 W 9 12 1008.2 - - - - - - - - -
17/08:30pm 30.4 WNW 9 13 1007.6 - - - - - - - - -
17/08:00pm 30.2 WNW 8 11 1007.0 - - - - - - - - -
17/07:30pm 30.3 WNW 7 11 1006.7 - - - - - - - - -
17/07:00pm 30.2 WNW 6 10 1006.2 - - - - - - - - -
17/06:30pm 31.0 WNW 7 11 1005.4 - - - - - - - - -
17/06:00pm 30.7 NW 6 9 1005.7 - - - - - - - - -
17/05:30pm 30.5 NW 6 9 1005.1 - - - - - - - - -
17/05:00pm 30.6 NW 7 12 1004.9 - - - - - - - - -
17/04:30pm 30.7 NW 7 12 1005.1 - - - - - - - - -
17/04:00pm 31.1 WNW 7 11 1005.0 - - - - - - - - -
17/03:30pm 33.1 WNW 9 14 1005.4 - - - - - - - - -
17/03:00pm 33.8 WNW 10 15 1005.4 - - - - - - - - -
17/02:30pm 34.2 NW 10 15 1005.8 - - - - - - - - -
17/02:00pm 34.4 WNW 10 13 1006.2 - - - - - - - - -
17/01:30pm 34.1 NW 8 12 1006.7 - - - - - - - - -
17/01:00pm 34.5 NW 10 13 1006.9 - - - - - - - - -
17/12:30pm 34.2 WNW 9 15 1007.3 - - - - - - - - -
17/12:00pm 33.9 NW 9 13 1007.9 - - - - - - - - -
17/11:30am 34.1 WNW 7 12 1008.3 - - - - - - - - -
17/11:00am 33.2 WNW 7 10 1008.3 - - - - - - - - -
17/10:30am 33.2 WNW 8 12 1008.5 - - - - - - - - -
17/10:00am 32.8 NW 6 9 1008.4 - - - - - - - - -
17/09:30am 32.9 WNW 6 9 1008.6 - - - - - - - - -
17/09:00am 32.1 WNW 7 11 1008.4 - - - - - - - - -
17/08:30am 31.7 WNW 8 11 1008.2 - - - - - - - - -
17/08:00am 31.1 WNW 7 9 1007.9 - - - - - - - - -
17/07:30am 30.2 WNW 7 10 1007.8 - - - - - - - - -
17/07:00am 30.0 WNW 7 10 1007.4 - - - - - - - - -
17/06:30am 29.7 WNW 6 8 1007.2 - - - - - - - - -
17/06:00am 29.8 WNW 8 11 1006.8 - - - - - - - - -

Other Formats:

Comma delimited format used in spreadsheet applications
http://www.bom.gov.au/fwo/IDD60701/IDD60701.94108.axf

JavaScript Object Notation format (JSON) in row-major order
http://www.bom.gov.au/fwo/IDD60701/IDD60701.94108.json